Lucy Furnace, Pennsylvania
Current Conditions -  °F | °C
As of 4:53 AM on Saturday 29 Nov 2014 (Local Time) from KAOO Reporting Station
Overcast Overcast  
Wind Chill: 19°   Ceiling: 4800
Heat Index: 25°   Visibility: 7mi
Dew Point: 21°   Wind: 5mph
Humidity: 85%   Direction: 180°S
Pressure: 30.19"   Gusts: NA
Location:  40.4281°N, 77.8329°W
Report Text: KAOO 290953Z AUTO 18004KT 7SM OVC048 M04/M06 A3019 RMK AO2 SNE29 SLP247 P0000 T10391061
Loading
Personal Weather Stations






























Interactive Weather Map New forecast layout! Learn more

10-Day Weather Forecast

Advertisements
Track Severe Weather on mobile